Flight Track Log - Related Links

Times and Time Zones

All times are in EDT time to prevent confusion due to time zone crossing. See the N319EE flight status page for this flight to view local times or setup timezone preferences in your user account.

Time Position Orientation Groundspeed Altitude Reporting Facility
EDT Latitude Longitude Course Direction KTS MPH feet Rate Location/Type
Tue 04:12:23 PM 40.7667 -73.4333 37° Northeast 159 183 1,600  Level New York TRACON
Tue 04:13:23 PM 40.8000 -73.4000 37° Northeast 180 207 3,500 2,100 Climbing New York TRACON
Tue 04:14:23 PM 40.8500 -73.3667 27° Northeast 170 196 5,800 2,150 Climbing New York TRACON
Tue 04:15:23 PM 40.8833 -73.3500 21° North 171 197 7,800 1,800 Climbing New York TRACON
Tue 04:16:23 PM 40.9333 -73.3500 360° North 175 201 9,400 1,800 Climbing New York TRACON
Tue 04:17:23 PM 40.9667 -73.4000 311° West 174 200 11,400 1,300 Climbing New York TRACON
Tue 04:18:23 PM 40.9833 -73.4667 288° West 216 249 12,000 300 Climbing New York TRACON
Tue 04:19:23 PM 41.0167 -73.5333 304° West 240 276 12,000  Level New York TRACON
Tue 04:20:23 PM 41.0500 -73.6167 298° West 243 280 12,000  Level New York TRACON
Tue 04:21:23 PM 41.0833 -73.7000 298° West 244 281 12,000  Level New York TRACON
Tue 04:22:23 PM 41.1167 -73.7833 298° West 243 280 12,000  Level New York TRACON
Tue 04:23:23 PM 41.1500 -73.8667 298° West 241 277 12,000  Level New York TRACON
Tue 04:24:00 PM 41.1614 -73.9156 287° West 243 280 12,000  Level New York Center
Tue 04:25:00 PM 41.1867 -73.9831 296° West 243 280 12,000  Level New York Center
Tue 04:26:00 PM 41.2197 -74.0700 297° West 243 280 12,000  Level New York Center
Tue 04:27:00 PM 41.2447 -74.1431 294° West 243 280 12,000  Level New York Center
Tue 04:28:00 PM 41.2775 -74.2303 297° West 243 280 12,000  Level New York Center
Tue 04:29:00 PM 41.3064 -74.3089 296° West 243 280 12,000  Level New York Center
Tue 04:30:00 PM 41.3353 -74.3881 296° West 243 280 12,000  Level New York Center
Tue 04:31:00 PM 41.3642 -74.4669 296° West 243 280 12,000  Level New York Center
Tue 04:32:00 PM 41.3928 -74.5458 296° West 243 280 12,000  Level New York Center
Tue 04:33:00 PM 41.4236 -74.6222 298° West 238 274 12,000  Level New York Center
Tue 04:34:00 PM 41.4608 -74.6936 305° West 243 280 12,000  Level New York Center
Tue 04:35:00 PM 41.4978 -74.7706 303° West 238 274 12,000  Level New York Center
Tue 04:36:00 PM 41.5331 -74.8419 303° West 243 280 12,000  Level New York Center
Tue 04:37:00 PM 41.5719 -74.9164 305° West 243 280 12,000  Level New York Center
Tue 04:38:00 PM 41.6089 -74.9936 303° West 248 285 12,000  Level New York Center
Tue 04:39:00 PM 41.6419 -75.0594 304° West 243 280 12,000  Level New York Center
Tue 04:40:00 PM 41.6786 -75.1369 302° West 243 280 12,000  Level New York Center
Tue 04:41:00 PM 41.7172 -75.2200 302° West 243 280 12,000  Level New York Center
Tue 04:42:00 PM 41.7561 -75.2947 305° West 243 280 12,000  Level New York Center
Tue 04:43:00 PM 41.7886 -75.3667 301° West 243 280 12,000 50 Level New York Center
Tue 04:44:00 PM 41.8253 -75.4414 303° West 243 280 12,100 50 Climbing New York Center
Tue 04:45:00 PM 41.8636 -75.5222 303° West 243 280 12,100  Level New York Center
Tue 04:46:00 PM 41.9003 -75.5972 303° West 243 280 12,100  Level New York Center
Tue 04:47:00 PM 41.9367 -75.6750 302° West 243 280 12,100  Level New York Center
Tue 04:48:00 PM 41.9731 -75.7503 303° West 243 280 12,100  Level New York Center
Tue 04:49:00 PM 42.0072 -75.8256 301° West 243 280 12,100  Level New York Center
Tue 04:50:00 PM 42.0419 -75.8925 305° West 243 280 12,100  Level New York Center
Tue 04:51:00 PM 42.0761 -75.9678 301° West 243 280 12,100  Level New York Center
Tue 04:52:00 PM 42.1122 -76.0431 303° West 243 280 12,100  Level New York Center
Tue 04:53:00 PM 42.1483 -76.1217 302° West 243 280 12,100  Level New York Center
Tue 04:54:00 PM 42.1911 -76.1922 309° West 243 280 12,100  Level New York Center
Tue 04:55:00 PM 42.2356 -76.2631 310° West 243 280 12,100  Level New York Center
Tue 04:56:00 PM 42.2783 -76.3283 312° West 243 280 12,100 -42 Level New York Center
Tue 04:57:23 PM 42.3406 -76.4231 312° West 241 277 12,000 -41 Descending Cleveland Center
Tue 04:58:25 PM 42.3836 -76.4925 310° West 242 278 12,000  Level Cleveland Center
Tue 04:59:27 PM 42.4297 -76.5628 312° West 248 285 12,000  Level Cleveland Center
Tue 05:00:29 PM 42.4828 -76.6472 310° West 244 281 12,000  Level Cleveland Center
Tue 05:01:31 PM 42.5267 -76.7181 310° West 243 280 12,000  Level Cleveland Center
Tue 05:02:33 PM 42.5711 -76.7875 311° West 244 281 12,000  Level Cleveland Center
Tue 05:03:35 PM 42.6150 -76.8589 310° West 246 283 12,000 -235 Level Cleveland Center
Tue 05:04:15 PM 42.6506 -76.9150 311° West 248 285 11,600 -677 Descending Cleveland Center
Tue 05:04:37 PM 42.6603 -76.9300 311° West 248 285 11,300 -684 Descending Cleveland Center
Tue 05:05:34 PM 42.7111 -77.0133 310° West 262 302 10,700 -484 Descending Cleveland Center
Tue 05:05:39 PM 42.7067 -77.0053 127° Southeast 258 297 10,800 -1,180 Climbing Cleveland Center
Tue 05:06:35 PM 42.7611 -77.0808 314° West 255 293 9,500 -1,355 Descending Cleveland Center
Tue 05:06:41 PM 42.7658 -77.0886 310° West 257 296 9,400 -1,500 Descending Cleveland Center
Tue 05:07:35 PM 42.8111 -77.1483 316° Northwest 255 293 8,000 -1,429 Descending Cleveland Center
Tue 05:07:44 PM 42.8156 -77.1547 313° West 254 292 7,900 -1,352 Descending Cleveland Center
Tue 05:08:46 PM 42.8647 -77.2197 316° Northwest 250 288 6,400 -1,210 Descending Cleveland Center
Tue 05:09:48 PM 42.9103 -77.2817 315° West 241 277 5,400 -1,048 Descending Cleveland Center
Tue 05:09:49 PM 42.9186 -77.2911 320° Northwest 231 266 5,300 -1,309 Descending Cleveland Center
Tue 05:10:43 PM 42.9631 -77.3517 315° West 242 278 4,200 -885 Descending Cleveland Center
Tue 05:10:50 PM 42.9572 -77.3442 137° Southeast 237 273 4,400 -885 Climbing Cleveland Center
Tue 05:11:44 PM 43.0114 -77.4164 316° Northwest 241 277 3,300 -1,161 Descending Cleveland Center
Tue 05:11:52 PM 43.0144 -77.4214 310° West 242 278 3,200 -600 Descending Cleveland Center
Tue 05:12:54 PM 43.0567 -77.4792 315° West 227 261 2,600 -339 Descending Cleveland Center
Tue 05:13:56 PM 43.0969 -77.5319 316° Northwest 209 241 2,500 -283 Descending Cleveland Center
Tue 05:14:40 PM 43.1250 -77.5733 313° West 176 203 2,100 -484 Descending Cleveland Center
Tue 05:14:58 PM 43.1300 -77.5836 304° West 196 226 2,000 -889 Descending Cleveland Center
Tue 05:15:34 PM 43.1356 -77.6197 282° West 136 157 1,300 -871 Descending Cleveland Center
Tue 05:16:00 PM 43.1300 -77.6303 234° Southwest 162 186 1,100 -409 Descending Cleveland Center
Tue 05:17:02 PM 43.1136 -77.6753 243° Southwest 143 165 700 -387 Descending Cleveland Center

Login

Don't have an account? Register now (free) for customized features, flight alerts, and more!